createdAt,value
2022-08-28T00:02:10.323Z,19.35
2022-08-28T00:04:38.413Z,19.31
2022-08-28T00:07:06.863Z,19.30
2022-08-28T00:09:36.372Z,19.28
2022-08-28T00:12:06.055Z,19.23
2022-08-28T00:14:34.845Z,19.18
2022-08-28T00:17:04.078Z,19.15
2022-08-28T00:19:36.641Z,19.13
2022-08-28T00:22:07.543Z,19.10
2022-08-28T00:24:36.897Z,19.10
2022-08-28T00:27:23.921Z,19.09
2022-08-28T00:29:52.158Z,19.08
2022-08-28T00:32:23.711Z,19.05
2022-08-28T00:34:52.581Z,19.03
2022-08-28T00:37:20.831Z,19.01
2022-08-28T00:39:53.301Z,18.97
2022-08-28T00:42:21.740Z,18.94
2022-08-28T00:44:49.803Z,18.92
2022-08-28T00:47:18.055Z,18.90
2022-08-28T00:49:51.274Z,18.88
2022-08-28T00:52:21.836Z,18.86
2022-08-28T00:55:18.219Z,18.87
2022-08-28T00:57:53.520Z,18.86
2022-08-28T01:00:41.164Z,18.85
2022-08-28T01:03:09.261Z,18.84
2022-08-28T01:05:40.217Z,18.82
2022-08-28T01:08:08.189Z,18.80
2022-08-28T01:10:36.977Z,18.77
2022-08-28T01:13:05.411Z,18.71
2022-08-28T01:15:37.274Z,18.66
2022-08-28T01:18:09.367Z,18.63
2022-08-28T01:20:47.079Z,18.61
2022-08-28T01:23:37.336Z,18.59
2022-08-28T01:26:06.540Z,18.57
2022-08-28T01:28:41.225Z,18.56
2022-08-28T01:31:12.219Z,18.54
2022-08-28T01:33:42.556Z,18.52
2022-08-28T01:36:12.426Z,18.52
2022-08-28T01:38:43.804Z,18.51
2022-08-28T01:41:14.170Z,18.51
2022-08-28T01:43:43.700Z,18.51
2022-08-28T01:46:12.795Z,18.51
2022-08-28T01:48:43.347Z,18.50
2022-08-28T01:51:12.571Z,18.50
2022-08-28T01:53:42.078Z,18.52
2022-08-28T01:56:15.608Z,18.52
2022-08-28T01:58:44.223Z,18.53
2022-08-28T02:01:15.882Z,18.52
2022-08-28T02:03:43.975Z,18.46
2022-08-28T02:06:13.490Z,18.39
2022-08-28T02:08:42.128Z,18.31
2022-08-28T02:11:11.110Z,18.25
2022-08-28T02:13:40.384Z,18.18
2022-08-28T02:16:11.013Z,18.12
2022-08-28T02:18:39.694Z,18.05
2022-08-28T02:21:09.668Z,17.98
2022-08-28T02:23:41.155Z,17.91
2022-08-28T02:26:10.493Z,17.88
2022-08-28T02:28:38.761Z,17.86
2022-08-28T02:31:09.562Z,17.81
2022-08-28T02:33:43.696Z,17.76
2022-08-28T02:36:13.944Z,17.69
2022-08-28T02:38:43.994Z,17.62
2022-08-28T02:41:13.003Z,17.57
2022-08-28T02:43:41.112Z,17.54
2022-08-28T02:46:09.746Z,17.52
2022-08-28T02:48:39.374Z,17.49
2022-08-28T02:51:11.655Z,17.44
2022-08-28T02:53:41.360Z,17.38
2022-08-28T02:56:10.544Z,17.36
2022-08-28T02:58:39.797Z,17.33
2022-08-28T03:01:11.090Z,17.31
2022-08-28T03:03:41.485Z,17.30
2022-08-28T03:06:12.792Z,17.27
2022-08-28T03:08:42.546Z,17.24
2022-08-28T03:11:12.108Z,17.21
2022-08-28T03:13:40.411Z,17.19
2022-08-28T03:16:08.590Z,17.16
2022-08-28T03:18:37.341Z,17.15
2022-08-28T03:21:05.924Z,17.11
2022-08-28T03:23:34.526Z,17.07
2022-08-28T03:26:12.676Z,17.04
2022-08-28T03:28:47.677Z,17.01
2022-08-28T03:31:19.861Z,16.98
2022-08-28T03:33:48.340Z,16.94
2022-08-28T03:36:21.592Z,16.92
2022-08-28T03:38:51.192Z,16.90
2022-08-28T03:41:24.454Z,16.90
2022-08-28T03:43:52.495Z,16.92
2022-08-28T03:46:23.913Z,16.93
2022-08-28T03:48:54.380Z,16.94
2022-08-28T03:51:29.973Z,16.95
2022-08-28T03:53:59.489Z,16.94
2022-08-28T03:56:29.736Z,16.91
2022-08-28T03:59:01.352Z,16.87
2022-08-28T04:01:29.514Z,16.83
2022-08-28T04:03:57.772Z,16.77
2022-08-28T04:06:27.751Z,16.74
2022-08-28T04:08:59.897Z,16.71
2022-08-28T04:11:29.027Z,16.71
2022-08-28T04:13:58.199Z,16.69
2022-08-28T04:16:26.349Z,16.67
2022-08-28T04:18:54.779Z,16.69
2022-08-28T04:21:24.561Z,16.70
2022-08-28T04:23:53.980Z,16.73
2022-08-28T04:26:25.227Z,16.74
2022-08-28T04:28:55.087Z,16.75
2022-08-28T04:31:32.447Z,16.78
2022-08-28T04:34:02.732Z,16.84
2022-08-28T04:36:31.239Z,16.88
2022-08-28T04:39:00.590Z,16.92
2022-08-28T04:41:29.110Z,16.97
2022-08-28T04:43:58.017Z,17.03
2022-08-28T04:46:26.543Z,17.08
2022-08-28T04:49:00.102Z,17.13
2022-08-28T04:51:28.962Z,17.15
2022-08-28T04:53:58.787Z,17.18
2022-08-28T04:56:26.967Z,17.22
2022-08-28T04:58:55.127Z,17.26
2022-08-28T05:01:24.907Z,17.29
2022-08-28T05:03:59.524Z,17.33
2022-08-28T05:06:29.599Z,17.38
2022-08-28T05:08:59.969Z,17.43
2022-08-28T05:11:33.434Z,17.49
2022-08-28T05:14:13.921Z,17.54
2022-08-28T05:16:47.775Z,17.60
2022-08-28T05:19:18.299Z,17.64
2022-08-28T05:21:48.078Z,17.71
2022-08-28T05:24:16.944Z,17.78
2022-08-28T05:26:48.146Z,17.84
2022-08-28T05:29:17.449Z,17.91
2022-08-28T05:31:46.413Z,17.97
2022-08-28T05:34:15.674Z,18.03
2022-08-28T05:36:44.027Z,18.08
2022-08-28T05:39:12.819Z,18.14
2022-08-28T05:41:44.061Z,18.21
2022-08-28T05:44:16.378Z,18.27
2022-08-28T05:46:48.446Z,18.35
2022-08-28T05:49:19.678Z,18.42
2022-08-28T05:51:49.798Z,18.50
2022-08-28T05:54:18.342Z,18.57
2022-08-28T05:56:47.299Z,18.61
2022-08-28T05:59:16.762Z,18.66
2022-08-28T06:01:49.694Z,18.69
2022-08-28T06:04:23.223Z,18.74
2022-08-28T06:06:52.417Z,18.80
2022-08-28T06:09:28.803Z,18.85
2022-08-28T06:12:01.905Z,18.93
2022-08-28T06:14:32.474Z,19.02
2022-08-28T06:17:01.949Z,19.12
2022-08-28T06:19:33.374Z,19.20
2022-08-28T06:22:07.176Z,19.29
2022-08-28T06:24:36.751Z,19.38
2022-08-28T06:27:04.984Z,19.43
2022-08-28T06:29:33.080Z,19.50
2022-08-28T06:32:04.672Z,19.57
2022-08-28T06:34:33.087Z,19.65
2022-08-28T06:37:01.152Z,19.72
2022-08-28T06:39:29.260Z,19.79
2022-08-28T06:41:57.320Z,19.86
2022-08-28T06:44:25.418Z,19.95
2022-08-28T06:46:54.386Z,20.05
2022-08-28T06:49:22.557Z,20.15
2022-08-28T06:51:50.725Z,20.24
2022-08-28T06:54:23.186Z,20.37
2022-08-28T06:56:52.857Z,20.46
2022-08-28T06:59:21.129Z,20.58
2022-08-28T07:01:49.454Z,20.69
2022-08-28T07:04:17.640Z,20.81
2022-08-28T07:06:47.061Z,20.91
2022-08-28T07:09:15.951Z,21.03
2022-08-28T07:11:46.898Z,21.16
2022-08-28T07:14:14.877Z,21.28
2022-08-28T07:16:44.671Z,21.40
2022-08-28T07:19:13.521Z,21.52
2022-08-28T07:21:44.965Z,21.66
2022-08-28T07:24:15.194Z,21.80
2022-08-28T07:26:45.324Z,21.94
2022-08-28T07:29:14.559Z,22.09
2022-08-28T07:31:47.506Z,22.24
2022-08-28T07:34:17.879Z,22.42
2022-08-28T07:36:46.477Z,22.59
2022-08-28T07:39:16.170Z,22.75
2022-08-28T07:41:46.070Z,22.91
2022-08-28T07:44:34.847Z,23.05
2022-08-28T07:47:05.918Z,23.17
2022-08-28T07:49:35.216Z,23.28
2022-08-28T07:52:05.235Z,23.41
2022-08-28T07:54:36.117Z,23.54
2022-08-28T07:57:05.892Z,23.67
2022-08-28T07:59:36.811Z,23.80
2022-08-28T08:02:06.340Z,23.96
2022-08-28T08:04:34.861Z,24.10
2022-08-28T08:07:05.073Z,24.24
2022-08-28T08:09:38.795Z,24.41
2022-08-28T08:12:10.411Z,24.55
2022-08-28T08:14:39.888Z,24.70
2022-08-28T08:17:09.033Z,24.83
2022-08-28T08:19:37.348Z,24.97
2022-08-28T08:22:06.383Z,25.11
2022-08-28T08:24:35.521Z,25.24
2022-08-28T08:27:03.654Z,25.39
2022-08-28T08:29:36.049Z,25.54
2022-08-28T08:32:08.063Z,25.66
2022-08-28T08:34:49.534Z,25.80
2022-08-28T08:37:17.496Z,25.93
2022-08-28T08:39:45.707Z,26.04
2022-08-28T08:42:28.850Z,26.16
2022-08-28T08:45:00.510Z,26.30
2022-08-28T08:47:31.257Z,26.43
2022-08-28T08:50:09.497Z,26.56
2022-08-28T08:52:40.489Z,26.69
2022-08-28T08:55:37.197Z,26.82
2022-08-28T08:58:14.056Z,26.99
2022-08-28T09:01:00.604Z,27.13
2022-08-28T09:04:11.718Z,27.25
2022-08-28T09:06:48.478Z,27.32
2022-08-28T09:09:35.333Z,27.43
2022-08-28T09:12:20.797Z,27.58
2022-08-28T09:15:09.986Z,27.72
2022-08-28T09:17:43.166Z,27.88
2022-08-28T09:20:15.461Z,27.97
2022-08-28T09:22:46.791Z,28.09
2022-08-28T09:25:52.506Z,28.22
2022-08-28T09:28:25.443Z,28.39
2022-08-28T09:31:31.934Z,28.49
2022-08-28T09:34:38.803Z,28.64
2022-08-28T09:37:08.612Z,28.81
2022-08-28T09:39:37.761Z,28.91
2022-08-28T09:42:27.482Z,28.98
2022-08-28T09:44:57.252Z,29.08
2022-08-28T09:47:46.279Z,29.17
2022-08-28T09:50:19.019Z,29.26
2022-08-28T09:52:47.631Z,29.38
2022-08-28T09:55:25.933Z,29.48
2022-08-28T09:57:54.931Z,29.63
2022-08-28T10:00:23.184Z,29.79
2022-08-28T10:02:58.405Z,29.94
2022-08-28T10:05:41.732Z,30.08
2022-08-28T10:08:27.736Z,30.21
2022-08-28T10:11:05.351Z,30.26
2022-08-28T10:13:43.143Z,30.37
2022-08-28T10:16:24.752Z,30.57
2022-08-28T10:19:10.246Z,30.79
2022-08-28T10:22:19.198Z,30.93
2022-08-28T10:24:54.810Z,31.12
2022-08-28T10:27:56.612Z,31.27
2022-08-28T10:30:25.392Z,31.46
2022-08-28T10:33:18.469Z,31.65
2022-08-28T10:36:01.700Z,31.80
2022-08-28T10:38:53.021Z,31.88
2022-08-28T10:41:27.297Z,31.96
2022-08-28T10:43:57.481Z,32.09
2022-08-28T10:46:42.641Z,32.19
2022-08-28T10:49:35.404Z,32.27
2022-08-28T10:52:11.637Z,32.29
2022-08-28T10:55:01.707Z,32.29
2022-08-28T10:57:45.205Z,32.34
2022-08-28T11:00:18.225Z,32.44
2022-08-28T11:02:51.665Z,32.54
2022-08-28T11:05:26.452Z,32.58
2022-08-28T11:07:59.191Z,32.62
2022-08-28T11:10:30.094Z,32.68
2022-08-28T11:12:59.683Z,32.66
2022-08-28T11:15:34.254Z,32.73
2022-08-28T11:18:17.005Z,32.80
2022-08-28T11:20:59.561Z,32.84
2022-08-28T11:23:37.488Z,32.92
2022-08-28T11:26:12.598Z,33.06
2022-08-28T11:28:47.658Z,33.14
2022-08-28T11:31:19.255Z,33.19
2022-08-28T11:34:00.150Z,33.27
2022-08-28T11:36:29.868Z,33.29
2022-08-28T11:38:58.068Z,33.35
2022-08-28T11:41:38.661Z,33.36
2022-08-28T11:44:09.444Z,33.29
2022-08-28T11:46:49.354Z,33.18
2022-08-28T11:49:26.707Z,33.07
2022-08-28T11:52:14.807Z,32.96
2022-08-28T11:55:00.226Z,32.77
2022-08-28T11:58:22.874Z,32.58
2022-08-28T12:00:56.576Z,32.32
2022-08-28T12:03:33.306Z,32.16
2022-08-28T12:06:02.505Z,32.07
2022-08-28T12:09:06.184Z,31.96
2022-08-28T12:11:39.910Z,31.78
2022-08-28T12:14:11.212Z,31.67
2022-08-28T12:17:04.344Z,31.65
2022-08-28T12:19:55.394Z,31.66
2022-08-28T12:22:39.985Z,31.69
2022-08-28T12:25:20.843Z,31.72
2022-08-28T12:27:49.698Z,31.73
2022-08-28T12:30:29.299Z,31.74
2022-08-28T12:33:27.094Z,31.73
2022-08-28T12:36:01.153Z,31.71
2022-08-28T12:38:32.007Z,31.72
2022-08-28T12:41:02.052Z,31.65
2022-08-28T12:43:36.028Z,31.64
2022-08-28T12:46:30.348Z,31.60
2022-08-28T12:49:04.883Z,31.50
2022-08-28T12:51:36.310Z,31.36
2022-08-28T12:54:08.635Z,31.20
2022-08-28T12:56:38.823Z,31.05
2022-08-28T12:59:49.498Z,30.90
2022-08-28T13:02:27.063Z,30.75
2022-08-28T13:04:57.988Z,30.64
2022-08-28T13:07:30.483Z,30.57
2022-08-28T13:10:02.014Z,30.47
2022-08-28T13:12:55.963Z,30.25
2022-08-28T13:15:43.415Z,29.97
2022-08-28T13:18:33.225Z,29.69
2022-08-28T13:21:32.522Z,29.41
2022-08-28T13:24:24.130Z,29.13
2022-08-28T13:27:07.351Z,28.89
2022-08-28T13:29:37.240Z,28.70
2022-08-28T13:32:15.907Z,28.54
2022-08-28T13:35:17.355Z,28.42
2022-08-28T13:37:49.715Z,28.27
2022-08-28T13:40:55.722Z,28.20
2022-08-28T13:43:13.369Z,28.14
2022-08-28T13:45:44.913Z,28.11
2022-08-28T13:48:24.962Z,28.07
2022-08-28T13:51:08.614Z,28.04
2022-08-28T13:53:39.951Z,28.00
2022-08-28T13:56:07.883Z,27.97
2022-08-28T13:58:35.969Z,27.97
2022-08-28T14:01:05.127Z,27.97
2022-08-28T14:03:38.581Z,27.96
2022-08-28T14:06:14.353Z,27.92
2022-08-28T14:08:45.516Z,27.92
2022-08-28T14:11:15.570Z,27.94
2022-08-28T14:13:47.061Z,27.94
2022-08-28T14:16:26.745Z,27.92
2022-08-28T14:18:55.024Z,27.91
2022-08-28T14:21:24.763Z,27.89
2022-08-28T14:23:52.940Z,27.90
2022-08-28T14:26:21.113Z,27.94
2022-08-28T14:28:49.186Z,28.05
2022-08-28T14:31:17.310Z,28.16
2022-08-28T14:33:46.574Z,28.27
2022-08-28T14:36:21.404Z,28.40
2022-08-28T14:38:54.053Z,28.50
2022-08-28T14:41:24.364Z,28.59
2022-08-28T14:43:53.737Z,28.67
2022-08-28T14:46:43.764Z,28.75
2022-08-28T14:49:15.917Z,28.83
2022-08-28T14:51:45.646Z,28.87
2022-08-28T14:54:16.385Z,28.88
2022-08-28T14:56:46.057Z,28.88
2022-08-28T14:59:24.216Z,28.92
2022-08-28T15:01:58.187Z,28.97
2022-08-28T15:04:34.459Z,29.00
2022-08-28T15:07:06.725Z,29.05
2022-08-28T15:09:38.081Z,29.10
2022-08-28T15:12:06.579Z,29.13
2022-08-28T15:14:36.018Z,29.18
2022-08-28T15:17:04.619Z,29.21
2022-08-28T15:19:33.174Z,29.18
2022-08-28T15:22:02.124Z,29.15
2022-08-28T15:24:34.452Z,29.13
2022-08-28T15:27:02.910Z,29.12
2022-08-28T15:29:31.074Z,29.09
2022-08-28T15:32:00.805Z,29.07
2022-08-28T15:34:29.113Z,29.05
2022-08-28T15:36:58.744Z,29.00
2022-08-28T15:39:47.569Z,28.97
2022-08-28T15:42:15.875Z,28.94
2022-08-28T15:44:44.590Z,28.92
2022-08-28T15:47:14.962Z,28.91
2022-08-28T15:49:48.701Z,28.94
2022-08-28T15:52:19.195Z,29.05
2022-08-28T15:54:49.635Z,29.17
2022-08-28T15:57:18.648Z,29.17
2022-08-28T15:59:49.709Z,29.08
2022-08-28T16:02:23.350Z,28.99
2022-08-28T16:04:53.409Z,28.89
2022-08-28T16:07:23.026Z,28.79
2022-08-28T16:09:51.566Z,28.70
2022-08-28T16:12:19.520Z,28.61
2022-08-28T16:14:47.586Z,28.51
2022-08-28T16:17:15.892Z,28.43
2022-08-28T16:19:45.245Z,28.33
2022-08-28T16:22:16.090Z,28.25
2022-08-28T16:24:45.986Z,28.17
2022-08-28T16:27:15.897Z,28.07
2022-08-28T16:29:45.631Z,27.99
2022-08-28T16:32:13.918Z,27.90
2022-08-28T16:34:44.788Z,27.81
2022-08-28T16:37:14.401Z,27.74
2022-08-28T16:39:53.957Z,27.65
2022-08-28T16:42:22.915Z,27.58
2022-08-28T16:44:56.488Z,27.48
2022-08-28T16:47:24.541Z,27.39
2022-08-28T16:50:07.214Z,27.30
2022-08-28T16:52:36.040Z,27.18
2022-08-28T16:55:05.981Z,27.09
2022-08-28T16:57:34.097Z,26.97
2022-08-28T17:00:02.592Z,26.86
2022-08-28T17:02:33.673Z,26.76
2022-08-28T17:05:04.087Z,26.65
2022-08-28T17:07:32.115Z,26.54
2022-08-28T17:10:00.429Z,26.43
2022-08-28T17:12:28.662Z,26.33
2022-08-28T17:14:56.847Z,26.23
2022-08-28T17:17:24.843Z,26.15
2022-08-28T17:19:52.969Z,26.07
2022-08-28T17:22:32.854Z,25.97
2022-08-28T17:25:04.115Z,25.88
2022-08-28T17:27:32.329Z,25.80
2022-08-28T17:30:03.327Z,25.70
2022-08-28T17:32:32.122Z,25.61
2022-08-28T17:35:02.359Z,25.54
2022-08-28T17:37:31.887Z,25.49
2022-08-28T17:39:59.928Z,25.43
2022-08-28T17:42:28.093Z,25.38
2022-08-28T17:44:56.115Z,25.33
2022-08-28T17:47:30.735Z,25.28
2022-08-28T17:50:01.580Z,25.19
2022-08-28T17:52:32.618Z,25.12
2022-08-28T17:55:01.338Z,25.05
2022-08-28T17:57:30.964Z,24.97
2022-08-28T18:00:00.610Z,24.89
2022-08-28T18:02:29.003Z,24.82
2022-08-28T18:04:57.384Z,24.75
2022-08-28T18:07:28.136Z,24.66
2022-08-28T18:09:56.944Z,24.58
2022-08-28T18:12:25.166Z,24.50
2022-08-28T18:14:53.423Z,24.43
2022-08-28T18:17:21.904Z,24.35
2022-08-28T18:19:50.586Z,24.28
2022-08-28T18:22:18.801Z,24.23
2022-08-28T18:24:52.815Z,24.18
2022-08-28T18:27:22.483Z,24.11
2022-08-28T18:29:50.676Z,24.06
2022-08-28T18:32:19.063Z,24.01
2022-08-28T18:34:47.500Z,23.95
2022-08-28T18:37:16.518Z,23.90
2022-08-28T18:39:44.551Z,23.85
2022-08-28T18:42:12.625Z,23.80
2022-08-28T18:44:40.568Z,23.74
2022-08-28T18:47:08.666Z,23.67
2022-08-28T18:49:36.705Z,23.59
2022-08-28T18:52:04.766Z,23.53
2022-08-28T18:54:33.421Z,23.47
2022-08-28T18:57:04.458Z,23.39
2022-08-28T18:59:33.843Z,23.30
2022-08-28T19:02:03.840Z,23.24
2022-08-28T19:04:33.461Z,23.18
2022-08-28T19:07:01.439Z,23.11
2022-08-28T19:09:32.413Z,23.04
2022-08-28T19:12:02.538Z,22.96
2022-08-28T19:14:31.430Z,22.90
2022-08-28T19:17:00.062Z,22.83
2022-08-28T19:19:28.831Z,22.78
2022-08-28T19:21:57.369Z,22.72
2022-08-28T19:24:29.832Z,22.70
2022-08-28T19:26:57.810Z,22.66
2022-08-28T19:29:26.055Z,22.62
2022-08-28T19:31:54.052Z,22.55
2022-08-28T19:34:22.262Z,22.49
2022-08-28T19:36:50.289Z,22.42
2022-08-28T19:39:18.301Z,22.35
2022-08-28T19:41:46.238Z,22.29
2022-08-28T19:44:14.268Z,22.24
2022-08-28T19:46:42.392Z,22.19
2022-08-28T19:49:10.414Z,22.16
2022-08-28T19:51:39.591Z,22.12
2022-08-28T19:54:11.205Z,22.09
2022-08-28T19:56:40.008Z,22.06
2022-08-28T19:59:09.193Z,22.04
2022-08-28T20:01:41.605Z,22.01
2022-08-28T20:04:16.790Z,21.99
2022-08-28T20:06:46.127Z,21.98
2022-08-28T20:09:14.464Z,21.97
2022-08-28T20:11:45.075Z,21.95
2022-08-28T20:14:15.142Z,21.93
2022-08-28T20:16:45.667Z,21.92
2022-08-28T20:19:14.975Z,21.90
2022-08-28T20:21:45.136Z,21.89
2022-08-28T20:24:17.723Z,21.88
2022-08-28T20:26:45.880Z,21.86
2022-08-28T20:29:15.090Z,21.82
2022-08-28T20:31:47.905Z,21.78
2022-08-28T20:34:18.522Z,21.73
2022-08-28T20:36:46.615Z,21.67
2022-08-28T20:39:15.688Z,21.62
2022-08-28T20:41:46.300Z,21.58
2022-08-28T20:44:21.992Z,21.54
2022-08-28T20:46:51.019Z,21.48
2022-08-28T20:49:23.920Z,21.44
2022-08-28T20:51:58.912Z,21.38
2022-08-28T20:54:31.657Z,21.32
2022-08-28T20:57:02.881Z,21.24
2022-08-28T20:59:37.215Z,21.16
2022-08-28T21:02:18.573Z,21.11
2022-08-28T21:04:47.423Z,21.05
2022-08-28T21:07:17.740Z,21.00
2022-08-28T21:10:05.346Z,20.96
2022-08-28T21:12:37.929Z,20.92
2022-08-28T21:15:08.975Z,20.86
2022-08-28T21:17:37.089Z,20.82
2022-08-28T21:20:12.086Z,20.79
2022-08-28T21:22:41.819Z,20.77
2022-08-28T21:25:11.216Z,20.76
2022-08-28T21:27:39.689Z,20.74
2022-08-28T21:30:10.176Z,20.72
2022-08-28T21:32:38.745Z,20.70
2022-08-28T21:35:11.146Z,20.68
2022-08-28T21:37:41.291Z,20.66
2022-08-28T21:40:12.218Z,20.65
2022-08-28T21:42:40.510Z,20.64
2022-08-28T21:45:12.027Z,20.63
2022-08-28T21:47:41.857Z,20.62
2022-08-28T21:50:11.190Z,20.62
2022-08-28T21:52:40.137Z,20.61
2022-08-28T21:55:12.551Z,20.59
2022-08-28T21:57:41.207Z,20.57
2022-08-28T22:00:15.171Z,20.52
2022-08-28T22:02:43.523Z,20.46
2022-08-28T22:05:12.194Z,20.40
2022-08-28T22:07:40.570Z,20.36
2022-08-28T22:10:09.362Z,20.30
2022-08-28T22:12:37.344Z,20.26
2022-08-28T22:15:06.328Z,20.25
2022-08-28T22:17:34.360Z,20.24
2022-08-28T22:20:02.795Z,20.24
2022-08-28T22:22:49.799Z,20.24
2022-08-28T22:25:17.858Z,20.24
2022-08-28T22:27:45.928Z,20.25
2022-08-28T22:30:14.619Z,20.27
2022-08-28T22:32:43.389Z,20.29
2022-08-28T22:35:11.556Z,20.31
2022-08-28T22:37:39.666Z,20.34
2022-08-28T22:40:09.497Z,20.38
2022-08-28T22:42:41.878Z,20.40
2022-08-28T22:45:10.507Z,20.41
2022-08-28T22:47:39.751Z,20.39
2022-08-28T22:50:08.750Z,20.36
2022-08-28T22:52:37.484Z,20.34
2022-08-28T22:55:09.290Z,20.30
2022-08-28T22:57:37.366Z,20.25
2022-08-28T23:00:11.942Z,20.23
2022-08-28T23:02:42.956Z,20.21
2022-08-28T23:05:11.808Z,20.20
2022-08-28T23:07:40.338Z,20.17
2022-08-28T23:10:09.592Z,20.16
2022-08-28T23:12:38.371Z,20.14
2022-08-28T23:15:12.053Z,20.12
2022-08-28T23:17:41.255Z,20.09
2022-08-28T23:20:12.583Z,20.05
2022-08-28T23:22:40.980Z,20.01
2022-08-28T23:25:13.665Z,19.98
2022-08-28T23:27:43.162Z,19.96
2022-08-28T23:30:13.525Z,19.93
2022-08-28T23:32:41.580Z,19.91
2022-08-28T23:35:12.429Z,19.86
2022-08-28T23:37:43.674Z,19.81
2022-08-28T23:40:20.545Z,19.74
2022-08-28T23:42:49.216Z,19.67
2022-08-28T23:45:18.834Z,19.62
2022-08-28T23:47:47.831Z,19.58
2022-08-28T23:50:20.844Z,19.56
2022-08-28T23:52:49.611Z,19.54
2022-08-28T23:55:19.459Z,19.52
2022-08-28T23:57:47.737Z,19.52
